Time;durP1;ratioP1;P1;durP2;ratioP2;P2;SDS_P1;SDS_P2;PMS_P1;PMS_P2;Temp;Humidity;BMP_temperature;BMP_pressure;BME280_temperature;BME280_humidity;BME280_pressure;Samples;Min_cycle;Max_cycle;Signal;HPM_P1;HPM_P2
2024/01/10 00:01:20;;;;;;;1999.90;999.90;;;;;;;-4.72;70.42;103092.50;10339511;28;20054;-67
2024/01/10 00:06:23;;;;;;;1999.90;999.90;;;;;;;-4.99;72.69;103079.41;10340256;28;20449;-68
2024/01/10 00:11:26;;;;;;;1999.90;999.90;;;;;;;-4.82;70.79;103080.13;10340165;28;20383;-68
2024/01/10 00:16:28;;;;;;;1999.90;999.90;;;;;;;-4.68;69.74;103079.03;10322723;28;20046;-68
2024/01/10 00:21:31;;;;;;;1999.90;999.90;;;;;;;-4.84;71.01;103063.88;10340100;28;20064;-68
2024/01/10 00:26:33;;;;;;;1999.90;999.90;;;;;;;-4.95;71.79;103067.66;10339490;28;20054;-68
2024/01/10 00:31:36;;;;;;;1999.90;999.90;;;;;;;-4.93;71.19;103061.78;10339363;28;20056;-68
2024/01/10 00:36:38;;;;;;;1999.90;999.90;;;;;;;-4.69;69.67;103061.97;10339606;28;20046;-68
2024/01/10 00:41:40;;;;;;;1999.90;999.90;;;;;;;-4.90;72.14;103048.28;10339573;28;20133;-68
2024/01/10 00:46:43;;;;;;;1999.90;999.90;;;;;;;-4.73;72.32;103048.97;10338746;28;20074;-68
2024/01/10 00:51:45;;;;;;;1999.90;999.90;;;;;;;-5.06;71.06;103051.84;10337644;28;20097;-68
2024/01/10 00:56:50;;;;;;;1999.90;999.90;;;;;;;-4.68;70.74;103050.03;10321081;28;20064;-68
2024/01/10 01:01:52;;;;;;;1999.90;999.90;;;;;;;-4.72;70.97;103046.50;10338346;28;20054;-68
2024/01/10 01:06:55;;;;;;;1999.90;999.90;;;;;;;-4.79;69.94;103052.16;10338085;28;20050;-68
2024/01/10 01:11:57;;;;;;;1999.90;999.90;;;;;;;-4.80;72.02;103046.97;10337771;28;20390;-68
2024/01/10 01:17:00;;;;;;;1999.90;999.90;;;;;;;-4.97;72.93;103049.69;10337661;28;20042;-68
2024/01/10 01:22:02;;;;;;;1999.90;999.90;;;;;;;-5.18;72.58;103041.97;10337265;28;20133;-69
2024/01/10 01:27:05;;;;;;;1999.90;999.90;;;;;;;-5.05;74.06;103041.69;10337404;28;20080;-68
2024/01/10 01:32:07;;;;;;;1999.90;999.90;;;;;;;-4.99;73.67;103037.63;10335937;28;20058;-68
2024/01/10 01:37:10;;;;;;;1999.90;999.90;;;;;;;-5.00;72.61;103047.00;10337118;28;20057;-68
2024/01/10 01:42:12;;;;;;;1999.90;999.90;;;;;;;-4.80;72.91;103045.28;10336673;28;20082;-68
2024/01/10 01:47:15;;;;;;;1999.90;999.90;;;;;;;-5.07;73.22;103038.19;10336652;28;20126;-68
2024/01/10 01:52:17;;;;;;;1999.90;999.90;;;;;;;-4.97;72.44;103038.59;10336415;28;20129;-68
2024/01/10 01:57:19;;;;;;;1999.90;999.90;;;;;;;-5.23;72.34;103029.00;10335908;28;20492;-68
2024/01/10 02:02:22;;;;;;;1999.90;999.90;;;;;;;-4.99;73.60;103025.75;10335837;28;20046;-68
2024/01/10 02:07:25;;;;;;;1999.90;999.90;;;;;;;-5.08;74.23;103028.81;10335674;28;20482;-68
2024/01/10 02:12:28;;;;;;;1999.90;999.90;;;;;;;-5.47;74.58;103022.81;10333973;28;20129;-68
2024/01/10 02:17:30;;;;;;;1999.90;999.90;;;;;;;-5.29;73.95;103020.22;10335690;28;20521;-68
2024/01/10 02:22:32;;;;;;;1999.90;999.90;;;;;;;-5.25;74.29;103007.59;10334905;28;20457;-68
2024/01/10 02:27:36;;;;;;;1999.90;999.90;;;;;;;-5.42;74.58;103006.00;10335109;28;20125;-68
2024/01/10 02:32:38;;;;;;;1999.90;999.90;;;;;;;-5.63;74.46;103006.81;10334746;28;20054;-68
2024/01/10 02:37:41;;;;;;;1999.90;999.90;;;;;;;-5.33;74.78;103002.97;10334653;28;20064;-68
2024/01/10 02:42:44;;;;;;;1999.90;999.90;;;;;;;-5.54;74.28;103005.47;10334968;28;20097;-68
2024/01/10 02:47:46;;;;;;;1999.90;999.90;;;;;;;-5.33;74.35;103013.19;10334263;28;20046;-69
2024/01/10 02:52:49;;;;;;;1999.90;999.90;;;;;;;-5.65;73.40;103013.53;10334248;28;20421;-68
2024/01/10 02:57:51;;;;;;;1999.90;999.90;;;;;;;-5.53;74.89;103012.31;10333894;28;20441;-68
2024/01/10 03:02:54;;;;;;;1999.90;999.90;;;;;;;-5.28;75.07;103007.50;10334102;28;20050;-69
2024/01/10 03:07:56;;;;;;;1999.90;999.90;;;;;;;-5.70;74.63;102999.69;10333894;28;20078;-68
2024/01/10 03:12:58;;;;;;;1999.90;999.90;;;;;;;-5.57;74.71;103003.66;10333667;28;20046;-68
2024/01/10 03:18:01;;;;;;;1999.90;999.90;;;;;;;-5.42;75.04;102991.56;10332383;28;20080;-68
2024/01/10 03:23:03;;;;;;;1999.90;999.90;;;;;;;-5.67;74.63;102993.84;10333480;28;20085;-68
2024/01/10 03:28:06;;;;;;;1999.90;999.90;;;;;;;-5.61;74.85;102995.00;10340547;28;20042;-68
2024/01/10 03:33:08;;;;;;;1999.90;999.90;;;;;;;-5.46;75.91;102992.25;10340403;28;20149;-68
2024/01/10 03:38:11;;;;;;;1999.90;999.90;;;;;;;-5.49;75.28;102986.13;10341516;28;20054;-69
2024/01/10 03:43:13;;;;;;;1999.90;999.90;;;;;;;-5.36;75.52;102983.31;10339997;28;20553;-68
2024/01/10 03:48:16;;;;;;;1999.90;999.90;;;;;;;-5.80;75.77;102978.00;10339944;28;20057;-68
2024/01/10 03:53:18;;;;;;;1999.90;999.90;;;;;;;-5.51;75.33;102977.53;10340360;28;20065;-68
2024/01/10 03:58:21;;;;;;;1999.90;999.90;;;;;;;-5.65;75.94;102979.47;10340596;28;20367;-68
2024/01/10 04:03:23;;;;;;;1999.90;999.90;;;;;;;-5.82;75.37;102973.59;10340684;28;20054;-68
2024/01/10 04:08:25;;;;;;;1999.90;999.90;;;;;;;-5.71;76.85;102971.56;10340442;28;20049;-69
2024/01/10 04:13:28;;;;;;;1999.90;999.90;;;;;;;-5.78;75.99;102960.19;10340390;28;20057;-68
2024/01/10 04:18:30;;;;;;;1999.90;999.90;;;;;;;-5.55;77.64;102957.78;10339978;28;20050;-68
2024/01/10 04:23:33;;;;;;;1999.90;999.90;;;;;;;-5.58;78.35;102957.63;10339423;28;20109;-68
2024/01/10 04:28:39;;;;;;;1999.90;999.90;;;;;;;-5.82;79.20;102959.16;10339663;28;20101;-68
2024/01/10 04:33:41;;;;;;;1999.90;999.90;;;;;;;-5.91;78.75;102951.09;10339862;28;20050;-68
2024/01/10 04:38:43;;;;;;;1999.90;999.90;;;;;;;-5.74;77.67;102949.31;10338732;28;20553;-68
2024/01/10 04:43:46;;;;;;;1999.90;999.90;;;;;;;-5.99;78.59;102949.91;10339013;28;20157;-68
2024/01/10 04:48:48;;;;;;;1999.90;999.90;;;;;;;-6.11;79.77;102939.16;10337542;28;20537;-68
2024/01/10 04:53:51;;;;;;;1999.90;999.90;;;;;;;-6.07;80.16;102953.78;10338785;28;20077;-68
2024/01/10 04:58:53;;;;;;;1999.90;999.90;;;;;;;-6.36;80.04;102944.00;10338349;28;20050;-68
2024/01/10 05:03:55;;;;;;;1999.90;999.90;;;;;;;-6.20;80.00;102939.63;10338359;28;20081;-68
2024/01/10 05:08:58;;;;;;;1999.90;999.90;;;;;;;-6.35;82.06;102944.88;10338122;28;20046;-68
2024/01/10 05:14:00;;;;;;;1999.90;999.90;;;;;;;-5.98;80.61;102949.13;10336627;28;20452;-68
2024/01/10 05:19:03;;;;;;;1999.90;999.90;;;;;;;-6.02;80.63;102942.13;10338212;28;20046;-68
2024/01/10 05:24:06;;;;;;;1999.90;999.90;;;;;;;-6.03;80.30;102953.16;10336251;28;20077;-68
2024/01/10 05:29:08;;;;;;;1999.90;999.90;;;;;;;-6.28;79.78;102952.00;10337156;28;20512;-68
2024/01/10 05:34:10;;;;;;;1999.90;999.90;;;;;;;-6.24;81.35;102955.56;10337102;28;20085;-68
2024/01/10 05:39:15;;;;;;;1999.90;999.90;;;;;;;-6.50;80.37;102944.16;10335843;28;20060;-68
2024/01/10 05:44:18;;;;;;;1999.90;999.90;;;;;;;-6.50;79.87;102945.03;10336602;28;20405;-68
2024/01/10 05:49:22;;;;;;;1999.90;999.90;;;;;;;-6.54;81.90;102938.91;10335990;28;20050;-68
2024/01/10 05:54:24;;;;;;;1999.90;999.90;;;;;;;-6.26;80.69;102940.19;10336137;28;20485;-68
2024/01/10 05:59:27;;;;;;;1999.90;999.90;;;;;;;-6.21;80.98;102937.88;10335951;28;20502;-68
2024/01/10 06:04:31;;;;;;;1999.90;999.90;;;;;;;-6.42;80.59;102930.97;10335748;28;20232;-68
2024/01/10 06:09:34;;;;;;;1999.90;999.90;;;;;;;-6.32;81.99;102931.38;10335614;28;20079;-68
2024/01/10 06:14:36;;;;;;;1999.90;999.90;;;;;;;-6.41;81.10;102921.66;10335606;28;20050;-68
2024/01/10 06:19:39;;;;;;;1999.90;999.90;;;;;;;-6.47;82.74;102921.34;10335303;28;20097;-68
2024/01/10 06:24:42;;;;;;;1999.90;999.90;;;;;;;-6.35;81.26;102919.38;10334910;28;20068;-68
2024/01/10 06:29:44;;;;;;;1999.90;999.90;;;;;;;-6.38;81.04;102920.09;10335056;28;20050;-69
2024/01/10 06:34:47;;;;;;;1999.90;999.90;;;;;;;-6.23;81.01;102922.50;10334732;28;20053;-68
2024/01/10 06:39:49;;;;;;;1999.90;999.90;;;;;;;-6.09;79.56;102924.81;10349688;22;20042;-61
2024/01/10 06:44:51;;;;;;;1999.90;999.90;;;;;;;-6.30;81.09;102924.69;10334626;28;20157;-60
2024/01/10 06:49:54;;;;;;;1999.90;999.90;;;;;;;-6.11;80.92;102926.41;10334513;28;20129;-61
2024/01/10 06:54:57;;;;;;;1999.90;999.90;;;;;;;-6.57;80.13;102920.94;10334474;28;20100;-61
2024/01/10 06:59:59;;;;;;;1999.90;999.90;;;;;;;-6.21;81.36;102925.13;10333860;28;20108;-61
2024/01/10 07:05:02;;;;;;;1999.90;999.90;;;;;;;-6.25;81.55;102924.09;10334098;28;20046;-61
2024/01/10 07:10:04;;;;;;;1999.90;999.90;;;;;;;-6.42;81.53;102930.97;10333779;28;20050;-61
2024/01/10 07:15:07;;;;;;;1999.90;999.90;;;;;;;-6.57;82.48;102928.56;10316513;28;20050;-61
2024/01/10 07:20:11;;;;;;;1999.90;999.90;;;;;;;-6.53;82.65;102943.19;10332564;28;20054;-61
2024/01/10 07:25:14;;;;;;;1999.90;999.90;;;;;;;-6.21;82.44;102948.94;10333777;28;20133;-61
2024/01/10 07:30:17;;;;;;;1999.90;999.90;;;;;;;-6.57;81.72;102945.56;10333492;28;20129;-60
2024/01/10 07:35:20;;;;;;;1999.90;999.90;;;;;;;-6.70;81.35;102946.63;10332176;28;20061;-60
2024/01/10 07:40:23;;;;;;;1999.90;999.90;;;;;;;-6.47;82.50;102946.84;10333373;28;20062;-60
2024/01/10 07:45:25;;;;;;;1999.90;999.90;;;;;;;-6.38;81.31;102957.47;10332448;28;20080;-60
2024/01/10 07:50:28;;;;;;;1999.90;999.90;;;;;;;-6.88;81.65;102945.72;10333819;28;20054;-60
2024/01/10 07:55:31;;;;;;;1999.90;999.90;;;;;;;-6.58;83.86;102942.09;10332958;28;20081;-60
2024/01/10 08:00:33;;;;;;;1999.90;999.90;;;;;;;-6.37;85.58;102952.47;10332929;28;20057;-60
2024/01/10 08:05:36;;;;;;;1999.90;999.90;;;;;;;-6.57;83.11;102941.31;10331808;28;20481;-60
2024/01/10 08:10:39;;;;;;;1999.90;999.90;;;;;;;-6.35;83.59;102947.44;10333992;28;20050;-60
2024/01/10 08:15:42;;;;;;;1999.90;999.90;;;;;;;-6.17;79.42;102955.94;10340235;28;20054;-60
2024/01/10 08:20:44;;;;;;;1999.90;999.90;;;;;;;-5.90;80.09;102946.88;10339781;28;20462;-61
2024/01/10 08:25:46;;;;;;;1999.90;999.90;;;;;;;-5.67;79.25;102945.34;10340093;28;20483;-61
2024/01/10 08:30:49;;;;;;;1999.90;999.90;;;;;;;-5.85;81.59;102947.94;10339158;28;20062;-60
2024/01/10 08:35:51;;;;;;;1999.90;999.90;;;;;;;-5.73;81.46;102947.63;10338115;28;20105;-60
2024/01/10 08:40:54;;;;;;;1999.90;999.90;;;;;;;-5.70;78.94;102947.75;10337391;28;20512;-61
2024/01/10 08:45:57;;;;;;;1999.90;999.90;;;;;;;-5.67;78.96;102938.56;10337777;28;20050;-60
2024/01/10 08:51:00;;;;;;;1999.90;999.90;;;;;;;-5.58;78.89;102932.09;10337586;28;20494;-60
2024/01/10 08:56:03;;;;;;;1999.90;999.90;;;;;;;-5.76;78.75;102942.41;10338364;28;20043;-61
2024/01/10 09:01:05;;;;;;;1999.90;999.90;;;;;;;-5.37;78.50;102945.81;10338312;28;20121;-61
2024/01/10 09:06:08;;;;;;;1999.90;999.90;;;;;;;-5.23;78.48;102937.06;10338316;28;20157;-60
2024/01/10 09:11:13;;;;;;;1999.90;999.90;;;;;;;-5.33;78.30;102939.16;10338060;28;20046;-61
2024/01/10 09:16:18;;;;;;;1999.90;999.90;;;;;;;-5.26;78.72;102933.50;10337844;28;20058;-61
2024/01/10 09:21:20;;;;;;;1999.90;999.90;;;;;;;-5.03;77.76;102942.13;10337008;28;20088;-61
2024/01/10 09:26:23;;;;;;;1999.90;999.90;;;;;;;-5.04;78.21;102937.84;10336859;28;20387;-61
2024/01/10 09:31:26;;;;;;;1999.90;999.90;;;;;;;0.67;72.32;102930.78;10337153;28;20054;-61
2024/01/10 09:36:28;;;;;;;1999.90;999.90;;;;;;;2.55;65.39;102930.81;10336902;28;20129;-62
2024/01/10 09:41:32;;;;;;;1999.90;999.90;;;;;;;3.97;62.37;102933.56;10335479;28;20502;-62
2024/01/10 09:46:35;;;;;;;1999.90;999.90;;;;;;;4.38;57.92;102923.34;10335394;28;20516;-63
2024/01/10 09:51:37;;;;;;;1999.90;999.90;;;;;;;2.15;58.91;102930.38;10340428;28;20049;-62
2024/01/10 09:56:39;;;;;;;1999.90;999.90;;;;;;;0.06;61.96;102938.16;10361698;28;20501;-63
2024/01/10 10:01:43;;;;;;;1999.90;999.90;;;;;;;-0.52;64.13;102940.34;10372388;28;20132;-65
2024/01/10 10:06:45;;;;;;;1999.90;999.90;;;;;;;0.19;63.75;102941.88;10356368;28;20039;-63
2024/01/10 10:11:57;;;;;;;1999.90;999.90;;;;;;;-1.18;65.00;102933.59;10359826;28;20137;-63
2024/01/10 10:17:16;;;;;;;1999.90;999.90;;;;;;;-1.09;65.42;102932.94;10327087;28;20042;-62
2024/01/10 10:22:19;;;;;;;1999.90;999.90;;;;;;;-1.65;65.60;102930.63;10316734;28;20465;-63
2024/01/10 10:27:21;;;;;;;1999.90;999.90;;;;;;;-2.07;64.86;102932.00;10346658;28;20129;-62
2024/01/10 10:32:24;;;;;;;1999.90;999.90;;;;;;;-2.18;65.11;102924.00;10338188;28;20132;-62
2024/01/10 10:37:26;;;;;;;1999.90;999.90;;;;;;;-2.21;64.96;102921.34;10302209;28;20050;-62
2024/01/10 10:42:29;;;;;;;1999.90;999.90;;;;;;;-2.13;64.65;102917.31;10312064;28;20059;-62
2024/01/10 10:47:36;;;;;;;1999.90;999.90;;;;;;;-1.05;63.21;102909.94;10307760;28;20061;-62
2024/01/10 10:52:41;;;;;;;1999.90;999.90;;;;;;;-1.45;61.55;102905.47;10304673;28;20053;-62
2024/01/10 10:57:48;;;;;;;1999.90;999.90;;;;;;;-1.41;59.85;102908.19;10297998;28;20051;-62
2024/01/10 11:03:06;;;;;;;1999.90;999.90;;;;;;;-0.28;58.86;102910.84;10353018;28;20053;-63
2024/01/10 11:08:11;;;;;;;1999.90;999.90;;;;;;;-0.41;59.61;102907.13;10339895;28;20144;-63
2024/01/10 11:13:38;;;;;;;1999.90;999.90;;;;;;;-0.33;60.43;102903.03;10372294;28;20050;-62
2024/01/10 11:19:18;;;;;;;1999.90;999.90;;;;;;;1.63;54.45;102897.00;10374150;28;20149;-62
2024/01/10 11:24:23;;;;;;;1999.90;999.90;;;;;;;1.34;56.16;102888.84;10342209;28;20050;-63
2024/01/10 11:29:29;;;;;;;1999.90;999.90;;;;;;;-0.70;57.13;102896.19;10329432;28;20046;-62
2024/01/10 11:34:32;;;;;;;1999.90;999.90;;;;;;;-1.22;56.90;102890.66;10330006;28;20054;-62
2024/01/10 11:39:36;;;;;;;1999.90;999.90;;;;;;;-1.23;58.35;102892.34;10332077;28;20057;-62
2024/01/10 11:44:51;;;;;;;1999.90;999.90;;;;;;;-0.51;59.30;102877.75;10332289;28;20125;-62
2024/01/10 11:49:55;;;;;;;1999.90;999.90;;;;;;;-0.32;59.21;102870.41;10341057;28;20046;-62
2024/01/10 11:54:58;;;;;;;1999.90;999.90;;;;;;;0.03;58.04;102870.28;10341112;28;20125;-62
2024/01/10 12:00:01;;;;;;;1999.90;999.90;;;;;;;2.91;54.72;102864.75;10340691;28;20061;-63
2024/01/10 12:05:04;;;;;;;1999.90;999.90;;;;;;;1.60;54.38;102855.66;10340516;28;20505;-63
2024/01/10 12:10:07;;;;;;;1999.90;999.90;;;;;;;0.87;55.38;102860.59;10340405;28;20117;-63
2024/01/10 12:15:09;;;;;;;1999.90;999.90;;;;;;;-0.02;56.34;102865.03;10340371;28;20054;-63
2024/01/10 12:20:14;;;;;;;1999.90;999.90;;;;;;;0.26;56.84;102860.41;10340155;28;20101;-63
2024/01/10 12:25:18;;;;;;;1999.90;999.90;;;;;;;0.15;57.13;102855.03;10338660;28;20046;-63
2024/01/10 12:30:20;;;;;;;1999.90;999.90;;;;;;;-0.06;56.48;102852.94;10339812;28;20060;-63
2024/01/10 12:35:23;;;;;;;1999.90;999.90;;;;;;;0.07;56.64;102849.75;10338306;28;20078;-63
2024/01/10 12:40:26;;;;;;;1999.90;999.90;;;;;;;-0.31;59.37;102854.16;10339067;28;20082;-63
2024/01/10 12:45:28;;;;;;;1999.90;999.90;;;;;;;-0.31;56.79;102854.16;10339107;28;20046;-62
2024/01/10 12:50:31;;;;;;;1999.90;999.90;;;;;;;-0.42;57.11;102852.22;10338804;28;20057;-62
2024/01/10 12:55:33;;;;;;;1999.90;999.90;;;;;;;-0.46;59.00;102854.69;10338502;28;20520;-63
2024/01/10 13:00:36;;;;;;;1999.90;999.90;;;;;;;-0.25;57.10;102857.72;10338123;28;20449;-62
2024/01/10 13:05:38;;;;;;;1999.90;999.90;;;;;;;-0.32;58.54;102857.53;10338479;28;20042;-62
2024/01/10 13:10:42;;;;;;;1999.90;999.90;;;;;;;-0.67;56.92;102852.50;10336944;28;20387;-62
2024/01/10 13:15:47;;;;;;;1999.90;999.90;;;;;;;-0.59;57.15;102854.44;10336894;28;20046;-62
2024/01/10 13:20:50;;;;;;;1999.90;999.90;;;;;;;-0.34;57.85;102852.34;10338305;28;20054;-63
2024/01/10 13:25:52;;;;;;;1999.90;999.90;;;;;;;-0.37;61.28;102852.28;10337696;28;20548;-63
2024/01/10 13:30:58;;;;;;;1999.90;999.90;;;;;;;-0.52;60.07;102855.44;10336207;28;20058;-63
2024/01/10 13:36:00;;;;;;;1999.90;999.90;;;;;;;-0.61;60.29;102856.06;10337090;28;20050;-63
2024/01/10 13:41:05;;;;;;;1999.90;999.90;;;;;;;-0.65;59.66;102858.56;10336759;28;20137;-63
2024/01/10 13:46:07;;;;;;;1999.90;999.90;;;;;;;-0.79;58.99;102859.13;10336800;28;20154;-63
2024/01/10 13:51:11;;;;;;;1999.90;999.90;;;;;;;-0.62;58.42;102856.94;10336606;28;20054;-62
2024/01/10 13:56:13;;;;;;;1999.90;999.90;;;;;;;-0.50;58.26;102843.47;10335078;28;20129;-62
2024/01/10 14:01:16;;;;;;;1999.90;999.90;;;;;;;-0.67;59.03;102850.81;10334749;28;20054;-63
2024/01/10 14:06:19;;;;;;;1999.90;999.90;;;;;;;-0.80;59.62;102859.09;10334864;28;20046;-62
2024/01/10 14:11:21;;;;;;;1999.90;999.90;;;;;;;-0.66;60.18;102852.53;10335043;28;20061;-62
2024/01/10 14:16:25;;;;;;;1999.90;999.90;;;;;;;-0.64;59.72;102852.56;10335400;28;20057;-62
2024/01/10 14:21:28;;;;;;;1999.90;999.90;;;;;;;-0.78;60.88;102863.41;10335327;28;20074;-62
2024/01/10 14:26:30;;;;;;;1999.90;999.90;;;;;;;-0.89;59.73;102864.91;10335293;28;20049;-62
2024/01/10 14:31:33;;;;;;;1999.90;999.90;;;;;;;-0.68;60.39;102861.94;10335120;28;20054;-62
2024/01/10 14:36:55;;;;;;;1999.90;999.90;;;;;;;-1.02;61.50;102866.31;10334450;28;20447;-62
2024/01/10 14:41:57;;;;;;;1999.90;999.90;;;;;;;-0.95;62.97;102857.88;10334611;28;20489;-62
2024/01/10 14:47:00;;;;;;;1999.90;999.90;;;;;;;-0.84;61.00;102859.84;10334647;28;20050;-62
2024/01/10 14:52:12;;;;;;;1999.90;999.90;;;;;;;-0.94;61.68;102863.91;10334443;28;20054;-62
2024/01/10 14:57:16;;;;;;;1999.90;999.90;;;;;;;-1.13;63.27;102863.47;10334058;28;20052;-62
2024/01/10 15:02:18;;;;;;;1999.90;999.90;;;;;;;-1.15;64.18;102865.13;10334331;28;20100;-62
2024/01/10 15:07:22;;;;;;;1999.90;999.90;;;;;;;-1.21;63.36;102865.00;10334026;28;20509;-62
2024/01/10 15:12:25;;;;;;;1999.90;999.90;;;;;;;-1.24;65.19;102874.34;10334436;28;20046;-62
2024/01/10 15:17:28;;;;;;;1999.90;999.90;;;;;;;-1.28;65.38;102875.94;10333772;28;20508;-63
2024/01/10 15:22:30;;;;;;;1999.90;999.90;;;;;;;-1.28;65.48;102878.50;10340027;28;20069;-62
2024/01/10 15:27:33;;;;;;;1999.90;999.90;;;;;;;-1.55;64.46;102884.66;10341986;28;20407;-62
2024/01/10 15:32:35;;;;;;;1999.90;999.90;;;;;;;-1.67;65.38;102878.34;10341813;28;20134;-62
2024/01/10 15:37:38;;;;;;;1999.90;999.90;;;;;;;-1.96;65.70;102886.13;10341300;28;20498;-62
2024/01/10 15:42:44;;;;;;;1999.90;999.90;;;;;;;-1.99;66.51;102889.47;10341594;28;20088;-62
2024/01/10 15:47:46;;;;;;;1999.90;999.90;;;;;;;-2.01;68.15;102898.84;10341354;28;20047;-62
2024/01/10 15:52:51;;;;;;;1999.90;999.90;;;;;;;-1.97;68.74;102886.94;10341228;28;20078;-62
2024/01/10 15:57:53;;;;;;;1999.90;999.90;;;;;;;-2.17;67.93;102897.53;10339584;28;20405;-62
2024/01/10 16:02:55;;;;;;;1999.90;999.90;;;;;;;-1.99;67.14;102896.31;10340655;28;20057;-62
2024/01/10 16:07:58;;;;;;;1999.90;999.90;;;;;;;-1.93;67.90;102889.66;10340836;28;20130;-62
2024/01/10 16:13:00;;;;;;;1999.90;999.90;;;;;;;-2.15;68.77;102887.28;10340290;28;20054;-62
2024/01/10 16:18:03;;;;;;;1999.90;999.90;;;;;;;-2.69;70.39;102893.38;10340374;28;20050;-62
2024/01/10 16:23:06;;;;;;;1999.90;999.90;;;;;;;-2.48;69.72;102894.03;10339846;28;20435;-62
2024/01/10 16:28:08;;;;;;;1999.90;999.90;;;;;;;-2.48;70.37;102893.19;10338720;28;20050;-62
2024/01/10 16:33:10;;;;;;;1999.90;999.90;;;;;;;-2.70;70.31;102889.94;10337728;28;20398;-62
2024/01/10 16:38:13;;;;;;;1999.90;999.90;;;;;;;-2.65;70.74;102892.66;10339196;28;20058;-63
2024/01/10 16:43:16;;;;;;;1999.90;999.90;;;;;;;-2.64;71.49;102890.16;10339174;28;20133;-62
2024/01/10 16:48:18;;;;;;;1999.90;999.90;;;;;;;-2.46;70.88;102894.94;10339094;28;20054;-62
2024/01/10 16:53:21;;;;;;;1999.90;999.90;;;;;;;-2.47;69.24;102905.16;10339194;28;20050;-62
2024/01/10 16:58:23;;;;;;;1999.90;999.90;;;;;;;-2.74;69.06;102910.31;10338472;28;20457;-62
2024/01/10 17:03:26;;;;;;;1999.90;999.90;;;;;;;-3.04;70.35;102918.78;10338894;28;20134;-62
2024/01/10 17:08:28;;;;;;;1999.90;999.90;;;;;;;-3.27;72.54;102925.69;10338161;28;20043;-63
2024/01/10 17:13:31;;;;;;;1999.90;999.90;;;;;;;-3.41;71.71;102932.91;10338223;28;20077;-62
2024/01/10 17:18:33;;;;;;;1999.90;999.90;;;;;;;-3.22;71.83;102948.06;10337782;28;20437;-62
2024/01/10 17:23:35;;;;;;;1999.90;999.90;;;;;;;-3.17;72.56;102948.25;10338159;28;20077;-62
2024/01/10 17:28:38;;;;;;;1999.90;999.90;;;;;;;-3.15;71.66;102955.97;10337367;28;20513;-62
2024/01/10 17:33:40;;;;;;;1999.90;999.90;;;;;;;-3.64;72.32;102960.25;10337166;28;20066;-62
2024/01/10 17:38:42;;;;;;;1999.90;999.90;;;;;;;-3.59;73.43;102967.28;10336776;28;20062;-62
2024/01/10 17:43:45;;;;;;;1999.90;999.90;;;;;;;-3.77;74.70;102974.28;10335805;28;20560;-62
2024/01/10 17:48:49;;;;;;;1999.90;999.90;;;;;;;-3.74;74.45;102980.38;10336918;28;20054;-62
2024/01/10 17:53:51;;;;;;;1999.90;999.90;;;;;;;-3.81;74.71;102975.88;10336676;28;20050;-62
2024/01/10 17:58:54;;;;;;;1999.90;999.90;;;;;;;-3.87;75.02;102982.44;10336199;28;20129;-62
2024/01/10 18:03:56;;;;;;;1999.90;999.90;;;;;;;-3.81;75.57;102986.09;10334811;28;20465;-62
2024/01/10 18:09:14;;;;;;;1999.90;999.90;;;;;;;-3.83;75.87;102989.41;10336601;28;20049;-62
2024/01/10 18:14:16;;;;;;;1999.90;999.90;;;;;;;-3.84;76.40;102995.38;10335624;28;20076;-62
2024/01/10 18:19:19;;;;;;;1999.90;999.90;;;;;;;-4.11;76.63;102993.50;10334220;28;20141;-62
2024/01/10 18:24:21;;;;;;;1999.90;999.90;;;;;;;-4.05;76.11;102996.31;10335490;28;20054;-62
2024/01/10 18:29:23;;;;;;;1999.90;999.90;;;;;;;-4.32;76.45;102988.41;10335515;28;20050;-62
2024/01/10 18:34:26;;;;;;;1999.90;999.90;;;;;;;-4.24;77.17;102994.69;10335086;28;20054;-62
2024/01/10 18:39:29;;;;;;;1999.90;999.90;;;;;;;-4.34;77.34;102993.50;10334443;28;20053;-62
2024/01/10 18:44:31;;;;;;;1999.90;999.90;;;;;;;-4.33;76.96;102997.78;10334508;28;20548;-62
2024/01/10 18:49:34;;;;;;;1999.90;999.90;;;;;;;-4.26;77.71;103004.00;10334404;28;20486;-62
2024/01/10 18:54:37;;;;;;;1999.90;999.90;;;;;;;-4.08;78.14;103008.06;10348415;23;20054;-65
2024/01/10 18:59:39;;;;;;;1999.90;999.90;;;;;;;-4.28;78.16;103017.56;10333171;28;20054;-63
2024/01/10 19:04:42;;;;;;;1999.90;999.90;;;;;;;-4.21;77.75;103019.53;10316962;28;20053;-63
2024/01/10 19:09:44;;;;;;;1999.90;999.90;;;;;;;-4.27;78.54;103021.84;10316888;28;20060;-63
2024/01/10 19:14:47;;;;;;;1999.90;999.90;;;;;;;-4.15;78.65;103027.47;10333818;28;20056;-63
2024/01/10 19:19:49;;;;;;;1999.90;999.90;;;;;;;-4.48;78.61;103023.59;10333650;28;20077;-63
2024/01/10 19:24:52;;;;;;;1999.90;999.90;;;;;;;-4.65;79.37;103026.31;10332635;28;20514;-63
2024/01/10 19:29:54;;;;;;;1999.90;999.90;;;;;;;-4.34;78.70;103026.75;10333709;28;20046;-63
2024/01/10 19:34:56;;;;;;;1999.90;999.90;;;;;;;-4.74;78.88;103031.88;10316120;28;20515;-66
2024/01/10 19:39:59;;;;;;;1999.90;999.90;;;;;;;-4.70;79.24;103034.63;10333512;28;20050;-63
2024/01/10 19:45:01;;;;;;;1999.90;999.90;;;;;;;-4.39;79.17;103029.91;10333307;28;20568;-63
2024/01/10 19:50:04;;;;;;;1999.90;999.90;;;;;;;-4.61;80.36;103035.84;10333125;28;20409;-63
2024/01/10 19:55:07;;;;;;;1999.90;999.90;;;;;;;-4.70;79.97;103037.19;10333296;28;20105;-63
2024/01/10 20:00:10;;;;;;;1999.90;999.90;;;;;;;-4.64;80.49;103049.34;10332956;28;20154;-63
2024/01/10 20:05:15;;;;;;;1999.90;999.90;;;;;;;-4.85;80.48;103037.41;10333039;28;20054;-63
2024/01/10 20:10:17;;;;;;;1999.90;999.90;;;;;;;-4.76;80.49;103046.28;10322459;28;20054;-63
2024/01/10 20:15:20;;;;;;;1999.90;999.90;;;;;;;-4.52;79.67;103044.75;10340405;28;20068;-63
2024/01/10 20:20:22;;;;;;;1999.90;999.90;;;;;;;-4.64;79.67;103040.81;10340183;28;20050;-63
2024/01/10 20:25:26;;;;;;;1999.90;999.90;;;;;;;-4.57;80.70;103047.91;10339992;28;20046;-63
2024/01/10 20:30:28;;;;;;;1999.90;999.90;;;;;;;-4.69;81.06;103050.84;10338751;28;20081;-63
2024/01/10 20:35:31;;;;;;;1999.90;999.90;;;;;;;-4.81;80.67;103051.19;10339517;28;20046;-66
2024/01/10 20:40:34;;;;;;;1999.90;999.90;;;;;;;-4.80;81.24;103065.75;10338348;28;20093;-63
2024/01/10 20:45:36;;;;;;;1999.90;999.90;;;;;;;-4.61;81.11;103066.50;10321790;28;20116;-63
2024/01/10 20:50:39;;;;;;;1999.90;999.90;;;;;;;-4.48;80.37;103076.44;10322203;28;20125;-63
2024/01/10 20:55:44;;;;;;;1999.90;999.90;;;;;;;-4.75;79.83;103078.72;10321324;28;20054;-63
2024/01/10 21:00:51;;;;;;;1999.90;999.90;;;;;;;-4.45;80.68;103088.47;10338722;28;20046;-63
2024/01/10 21:05:54;;;;;;;1999.90;999.90;;;;;;;-4.44;79.44;103093.63;10338476;28;20564;-63
2024/01/10 21:10:56;;;;;;;1999.90;999.90;;;;;;;-4.48;79.69;103102.88;10337153;28;20134;-64
2024/01/10 21:15:59;;;;;;;1999.90;999.90;;;;;;;-4.76;79.33;103095.72;10337081;28;20050;-65
2024/01/10 21:21:03;;;;;;;1999.90;999.90;;;;;;;-4.82;80.55;103110.81;10336363;28;20153;-65
2024/01/10 21:26:05;;;;;;;1999.90;999.90;;;;;;;-4.42;80.83;103111.59;10336777;28;20057;-65
2024/01/10 21:31:08;;;;;;;1999.90;999.90;;;;;;;-4.79;80.32;103105.84;10337566;28;20097;-65
2024/01/10 21:36:10;;;;;;;1999.90;999.90;;;;;;;-4.68;81.14;103101.16;10336387;28;20058;-65
2024/01/10 21:41:12;;;;;;;1999.90;999.90;;;;;;;-4.82;80.58;103109.91;10335899;28;20125;-66
2024/01/10 21:46:15;;;;;;;1999.90;999.90;;;;;;;-4.71;80.21;103116.38;10336383;28;20050;-65
2024/01/10 21:51:17;;;;;;;1999.90;999.90;;;;;;;-4.50;80.71;103129.22;10336860;28;20080;-66
2024/01/10 21:56:20;;;;;;;1999.90;999.90;;;;;;;-4.48;79.71;103135.25;10318754;28;20145;-66